Time;durP1;ratioP1;P1;durP2;ratioP2;P2;SDS_P1;SDS_P2;PMS_P1;PMS_P2;Temp;Humidity;BMP_temperature;BMP_pressure;BME280_temperature;BME280_humidity;BME280_pressure;Samples;Min_cycle;Max_cycle;Signal;HPM_P1;HPM_P2
2022/05/31 00:01:47;;;;;;;5.53;3.45;;;;;;;;;;6237830;22;20518;-60
2022/05/31 00:08:39;;;;;;;4.00;3.10;;;;;;;;;;6321138;22;20527;31
2022/05/31 00:18:03;;;;;;;3.90;3.25;;;;;;;;;;6256433;22;20201;31
2022/05/31 00:23:13;;;;;;;4.03;3.63;;;;;;;;;;6289912;22;20650;31
2022/05/31 00:37:47;;;;;;;3.75;3.30;;;;;;;;;;6258313;22;20532;-61
2022/05/31 00:40:13;;;;;;;2.92;2.60;;;;;;;;;;6205217;22;20186;31
2022/05/31 00:55:12;;;;;;;4.00;3.10;;;;;;;;;;6294136;22;20199;31
2022/05/31 00:59:57;;;;;;;4.03;3.05;;;;;;;;;;6335090;22;21799;31
2022/05/31 01:06:41;;;;;;;4.43;3.20;;;;;;;;;;6235195;22;20534;31
2022/05/31 01:15:46;;;;;;;4.47;3.10;;;;;;;;;;6203062;22;20195;-60
2022/05/31 01:22:33;;;;;;;5.43;3.25;;;;;;;;;;6225811;22;20366;31
2022/05/31 01:26:50;;;;;;;5.00;3.40;;;;;;;;;;6166514;22;20536;31
2022/05/31 01:33:28;;;;;;;6.00;3.60;;;;;;;;;;6323220;22;20521;31
2022/05/31 01:35:54;;;;;;;6.20;3.33;;;;;;;;;;6318912;22;20197;31
2022/05/31 01:40:43;;;;;;;3.92;3.30;;;;;;;;;;6290483;22;20527;-62
2022/05/31 01:48:01;;;;;;;6.28;3.17;;;;;;;;;;6226067;22;20437;31
2022/05/31 02:03:43;;;;;;;4.93;3.05;;;;;;;;;;6256437;22;20218;31
2022/05/31 02:11:07;;;;;;;3.60;3.00;;;;;;;;;;6255823;22;20208;31
2022/05/31 02:15:18;;;;;;;4.63;2.90;;;;;;;;;;6320454;22;20506;31
2022/05/31 02:21:53;;;;;;;4.72;3.10;;;;;;;;;;6198008;22;20546;31
2022/05/31 02:30:55;;;;;;;4.40;3.05;;;;;;;;;;6227911;22;20392;31
2022/05/31 02:35:33;;;;;;;4.85;3.22;;;;;;;;;;6166419;22;20514;31
2022/05/31 02:42:28;;;;;;;5.57;3.15;;;;;;;;;;6205782;22;20519;31
2022/05/31 02:49:55;;;;;;;3.80;3.22;;;;;;;;;;6258035;22;20810;-61
2022/05/31 02:56:46;;;;;;;6.05;3.15;;;;;;;;;;6196819;22;20512;-60
2022/05/31 03:08:41;;;;;;;5.15;2.95;;;;;;;;;;6318107;22;39873;31
2022/05/31 03:18:14;;;;;;;4.15;3.20;;;;;;;;;;6176492;22;20558;31
2022/05/31 03:25:14;;;;;;;3.60;2.53;;;;;;;;;;6292663;22;21858;31
2022/05/31 03:31:54;;;;;;;3.70;2.90;;;;;;;;;;6223844;22;20566;-61
2022/05/31 03:41:55;;;;;;;3.88;2.90;;;;;;;;;;6199384;22;21105;31
2022/05/31 04:01:03;;;;;;;4.18;2.88;;;;;;;;;;6203474;22;20516;-59
2022/05/31 04:08:01;;;;;;;3.80;2.70;;;;;;;;;;6203746;22;20512;31
2022/05/31 04:14:41;;;;;;;4.28;2.50;;;;;;;;;;5927182;22;21656;31
2022/05/31 04:24:22;;;;;;;4.18;2.50;;;;;;;;;;5842688;22;20206;31
2022/05/31 04:31:01;;;;;;;3.60;2.55;;;;;;;;;;6133831;23;20195;-61
2022/05/31 04:35:30;;;;;;;3.55;2.35;;;;;;;;;;6203912;22;20547;31
2022/05/31 04:44:33;;;;;;;3.45;2.10;;;;;;;;;;6133396;23;20207;31
2022/05/31 04:48:38;;;;;;;2.92;2.33;;;;;;;;;;6166203;22;20514;-61
2022/05/31 04:51:03;;;;;;;3.20;2.33;;;;;;;;;;6144205;23;20201;31
2022/05/31 04:55:36;;;;;;;3.13;2.10;;;;;;;;;;6289611;22;20686;31
2022/05/31 05:02:28;;;;;;;4.10;2.25;;;;;;;;;;5911836;22;20522;31
2022/05/31 05:09:09;;;;;;;2.58;2.17;;;;;;;;;;6265856;22;20548;31
2022/05/31 05:16:41;;;;;;;6.60;2.95;;;;;;;;;;6292170;22;20515;31
2022/05/31 05:23:22;;;;;;;2.78;2.42;;;;;;;;;;6205739;22;23471;31
2022/05/31 05:47:03;;;;;;;2.85;2.60;;;;;;;;;;6201638;22;20206;31
2022/05/31 05:51:34;;;;;;;4.35;2.50;;;;;;;;;;6220825;22;20539;-60
2022/05/31 06:14:44;;;;;;;4.25;2.60;;;;;;;;;;6287358;22;20187;-60
2022/05/31 06:19:45;;;;;;;3.60;2.70;;;;;;;;;;6167018;22;20523;-61
2022/05/31 06:26:19;;;;;;;4.88;2.42;;;;;;;;;;6168526;22;20522;31
2022/05/31 06:28:45;;;;;;;3.20;2.47;;;;;;;;;;6136549;23;20242;31
2022/05/31 06:33:05;;;;;;;3.35;2.30;;;;;;;;;;6205557;22;20512;31
2022/05/31 06:40:25;;;;;;;3.13;2.40;;;;;;;;;;6291083;22;20623;31
2022/05/31 06:47:38;;;;;;;2.72;2.00;;;;;;;;;;6346415;22;20562;31
2022/05/31 06:57:35;;;;;;;3.58;1.88;;;;;;;;;;6308994;22;20203;31
2022/05/31 07:02:19;;;;;;;2.20;2.00;;;;;;;;;;6257069;22;21216;31
2022/05/31 07:16:38;;;;;;;1.70;1.60;;;;;;;;;;6287880;22;20973;31
2022/05/31 07:23:14;;;;;;;4.32;1.40;;;;;;;;;;6230187;22;20545;31
2022/05/31 07:32:38;;;;;;;1.92;1.25;;;;;;;;;;6227745;22;20220;31
2022/05/31 07:37:29;;;;;;;3.53;1.30;;;;;;;;;;5876709;22;20539;31
2022/05/31 07:40:02;;;;;;;1.52;1.30;;;;;;;;;;5744640;23;20201;31
2022/05/31 07:44:18;;;;;;;2.65;1.58;;;;;;;;;;6356279;22;20515;-62
2022/05/31 07:49:09;;;;;;;2.63;1.40;;;;;;;;;;6061192;22;6242604;31
2022/05/31 08:08:09;;;;;;;1.38;1.20;;;;;;;;;;6291255;22;20195;31
2022/05/31 08:15:21;;;;;;;2.00;1.48;;;;;;;;;;6346258;22;20199;31
2022/05/31 08:19:52;;;;;;;2.75;0.80;;;;;;;;;;6261338;22;20571;31
2022/05/31 08:26:37;;;;;;;1.65;1.23;;;;;;;;;;6323458;22;20524;31
2022/05/31 08:36:35;;;;;;;1.40;1.17;;;;;;;;;;6145204;23;20576;-61
2022/05/31 08:43:32;;;;;;;2.45;1.13;;;;;;;;;;6323138;22;20207;31
2022/05/31 09:05:14;;;;;;;2.90;1.30;;;;;;;;;;6317549;22;20198;31
2022/05/31 09:20:26;;;;;;;1.77;1.13;;;;;;;;;;6317921;22;20198;31
2022/05/31 09:24:40;;;;;;;1.90;1.10;;;;;;;;;;6165689;22;20554;31
2022/05/31 09:31:03;;;;;;;1.92;1.23;;;;;;;;;;6228607;22;20536;-61
2022/05/31 09:44:48;;;;;;;1.48;0.85;;;;;;;;;;6166826;22;20947;31
2022/05/31 10:06:14;;;;;;;0.63;0.63;;;;;;;;;;6290496;22;20564;-60
2022/05/31 10:13:19;;;;;;;2.05;0.85;;;;;;;;;;6204442;22;20531;31
2022/05/31 10:19:51;;;;;;;0.80;0.75;;;;;;;;;;6198805;22;20513;31
2022/05/31 10:29:50;;;;;;;0.80;0.80;;;;;;;;;;6287690;22;20227;31
2022/05/31 10:34:41;;;;;;;1.33;0.80;;;;;;;;;;6260256;22;20186;31
2022/05/31 10:43:33;;;;;;;1.63;0.82;;;;;;;;;;6265054;22;20576;31
2022/05/31 10:54:56;;;;;;;1.38;0.80;;;;;;;;;;6203450;22;20527;-61
2022/05/31 11:01:49;;;;;;;0.60;0.60;;;;;;;;;;6260929;22;20551;31
2022/05/31 11:11:29;;;;;;;1.67;0.70;;;;;;;;;;6224445;22;20973;-59
2022/05/31 11:22:03;;;;;;;1.05;0.77;;;;;;;;;;6228213;22;21328;-62
2022/05/31 11:31:40;;;;;;;1.45;0.60;;;;;;;;;;6134965;23;20211;31
2022/05/31 11:35:42;;;;;;;1.75;0.70;;;;;;;;;;6175018;22;20570;31
2022/05/31 11:42:21;;;;;;;0.60;0.60;;;;;;;;;;6258870;22;21366;-61
2022/05/31 12:13:16;;;;;;;1.13;0.82;;;;;;;;;;6133136;23;20203;31
2022/05/31 12:18:41;;;;;;;1.42;0.93;;;;;;;;;;6165419;22;20509;-63
2022/05/31 12:31:55;;;;;;;1.10;0.57;;;;;;;;;;6203018;22;20511;-61
2022/05/31 12:39:15;;;;;;;2.65;0.70;;;;;;;;;;6257470;22;20518;31
2022/05/31 12:48:30;;;;;;;0.82;0.70;;;;;;;;;;6293271;22;20210;31
2022/05/31 12:55:18;;;;;;;1.23;0.80;;;;;;;;;;6318799;22;20191;31
2022/05/31 12:59:24;;;;;;;2.35;0.73;;;;;;;;;;6289981;22;20722;-62
2022/05/31 13:01:50;;;;;;;3.03;0.93;;;;;;;;;;6263779;22;20246;31
2022/05/31 13:08:44;;;;;;;1.20;0.90;;;;;;;;;;6137916;23;21517;-61
2022/05/31 13:19:49;;;;;;;1.33;0.70;;;;;;;;;;6177754;22;20557;-60
2022/05/31 13:27:34;;;;;;;;;;;;;;;;;;;;;
2022/05/31 13:37:29;;;;;;;1.10;0.70;;;;;;;;;;6230504;22;20209;31
2022/05/31 13:51:37;;;;;;;0.70;0.70;;;;;;;;;;6139586;23;22618;31
2022/05/31 13:55:44;;;;;;;1.10;0.77;;;;;;;;;;6263463;22;20839;31
2022/05/31 14:10:11;;;;;;;0.75;0.65;;;;;;;;;;6176708;22;20569;31
2022/05/31 14:16:54;;;;;;;1.30;0.60;;;;;;;;;;6208404;22;20539;31
2022/05/31 14:23:32;;;;;;;0.98;0.60;;;;;;;;;;6325921;22;20514;31
2022/05/31 14:30:04;;;;;;;0.88;0.60;;;;;;;;;;6178714;22;20537;-61
2022/05/31 14:32:30;;;;;;;0.70;0.70;;;;;;;;;;6153088;22;20188;31
2022/05/31 14:36:52;;;;;;;0.50;0.45;;;;;;;;;;6173547;22;20527;31
2022/05/31 14:43:59;;;;;;;0.50;0.50;;;;;;;;;;6291364;22;20616;31
2022/05/31 14:53:00;;;;;;;0.60;0.60;;;;;;;;;;6226683;22;20197;31
2022/05/31 14:59:43;;;;;;;0.50;0.50;;;;;;;;;;6203075;22;20205;31
2022/05/31 15:06:20;;;;;;;0.80;0.60;;;;;;;;;;6201350;22;20610;31
2022/05/31 15:24:16;;;;;;;0.70;0.50;;;;;;;;;;6291259;22;20524;31
2022/05/31 15:44:39;;;;;;;0.57;0.57;;;;;;;;;;6323510;22;20516;31
2022/05/31 15:53:42;;;;;;;0.50;0.50;;;;;;;;;;6288011;22;20204;31
2022/05/31 15:59:34;;;;;;;1.52;0.60;;;;;;;;;;6259926;22;20546;31
2022/05/31 16:08:48;;;;;;;0.30;0.30;;;;;;;;;;6136895;23;20207;31
2022/05/31 16:15:58;;;;;;;0.50;0.50;;;;;;;;;;6203752;22;20205;31
2022/05/31 16:22:34;;;;;;;1.05;0.50;;;;;;;;;;6320538;22;20207;31
2022/05/31 16:29:43;;;;;;;1.85;0.60;;;;;;;;;;6288020;22;20916;-62
2022/05/31 16:36:20;;;;;;;0.60;0.40;;;;;;;;;;6321366;22;20203;31
2022/05/31 16:50:05;;;;;;;0.82;0.40;;;;;;;;;;6150413;23;20198;31
2022/05/31 16:57:10;;;;;;;0.90;0.50;;;;;;;;;;6345478;22;20202;31
2022/05/31 17:25:20;;;;;;;0.80;0.45;;;;;;;;;;6269399;22;20200;31
2022/05/31 17:32:31;;;;;;;0.60;0.47;;;;;;;;;;6346627;22;20195;31
2022/05/31 17:36:39;;;;;;;1.33;0.50;;;;;;;;;;6294083;22;20528;31
2022/05/31 17:45:55;;;;;;;1.92;1.00;;;;;;;;;;6229950;22;20197;31
2022/05/31 17:59:56;;;;;;;1.65;0.70;;;;;;;;;;6259305;22;20209;31
2022/05/31 18:07:02;;;;;;;2.13;0.80;;;;;;;;;;6290056;22;20203;-62
2022/05/31 18:13:56;;;;;;;2.53;0.60;;;;;;;;;;6291646;22;20215;31
2022/05/31 18:20:35;;;;;;;0.70;0.60;;;;;;;;;;6321010;22;20234;31
2022/05/31 18:27:43;;;;;;;1.65;0.68;;;;;;;;;;6334395;22;20194;31
2022/05/31 18:32:06;;;;;;;3.10;0.70;;;;;;;;;;6292674;22;20535;-61
2022/05/31 18:34:33;;;;;;;1.58;0.88;;;;;;;;;;6258660;22;20189;31
2022/05/31 18:42:04;;;;;;;2.35;0.50;;;;;;;;;;6198239;22;20201;31
2022/05/31 18:48:53;;;;;;;2.25;0.95;;;;;;;;;;5797917;23;22321;31
2022/05/31 18:53:19;;;;;;;1.38;1.20;;;;;;;;;;6261243;22;20560;31
2022/05/31 19:02:35;;;;;;;1.98;0.98;;;;;;;;;;6320982;22;20203;31
2022/05/31 19:06:59;;;;;;;1.58;1.20;;;;;;;;;;6323192;22;20509;31
2022/05/31 19:16:03;;;;;;;3.10;1.20;;;;;;;;;;6319250;22;20188;31
2022/05/31 19:20:39;;;;;;;2.72;0.95;;;;;;;;;;6337158;22;20537;31
2022/05/31 19:27:33;;;;;;;1.15;0.90;;;;;;;;;;6325373;22;20505;31
2022/05/31 19:34:11;;;;;;;1.27;0.90;;;;;;;;;;6292210;22;20516;31
2022/05/31 19:50:20;;;;;;;1.13;0.90;;;;;;;;;;5764226;23;20208;31
2022/05/31 19:54:49;;;;;;;2.33;0.95;;;;;;;;;;6263320;22;20565;31
2022/05/31 20:01:27;;;;;;;1.52;1.13;;;;;;;;;;6173342;22;20521;-60
2022/05/31 20:08:17;;;;;;;1.58;0.90;;;;;;;;;;6295898;22;20512;31
2022/05/31 20:15:20;;;;;;;1.98;1.20;;;;;;;;;;6293962;22;20565;-61
2022/05/31 20:31:18;;;;;;;3.00;1.35;;;;;;;;;;6227211;22;20206;31
2022/05/31 20:35:44;;;;;;;2.75;1.40;;;;;;;;;;6258448;22;20621;31
2022/05/31 20:45:13;;;;;;;2.10;1.60;;;;;;;;;;6225569;22;20206;-63
2022/05/31 21:06:02;;;;;;;3.38;1.90;;;;;;;;;;6263221;22;20456;31
2022/05/31 21:10:13;;;;;;;3.97;2.15;;;;;;;;;;6290310;22;20511;31
2022/05/31 21:16:49;;;;;;;3.90;1.90;;;;;;;;;;6292255;22;20518;31
2022/05/31 21:25:56;;;;;;;4.15;2.28;;;;;;;;;;6143026;23;20204;31
2022/05/31 21:47:19;;;;;;;2.13;1.83;;;;;;;;;;6135582;23;20219;31
2022/05/31 22:09:04;;;;;;;2.72;2.38;;;;;;;;;;6319509;22;20203;31
2022/05/31 22:15:42;;;;;;;3.38;1.90;;;;;;;;;;5775612;23;20291;31
2022/05/31 22:22:35;;;;;;;2.80;1.80;;;;;;;;;;6172168;23;22108;31
2022/05/31 22:49:43;;;;;;;5.68;1.80;;;;;;;;;;6317797;22;20199;31
2022/05/31 23:07:54;;;;;;;4.10;2.75;;;;;;;;;;6291574;22;20535;-62
2022/05/31 23:10:19;;;;;;;4.10;2.60;;;;;;;;;;6258346;22;20198;31
2022/05/31 23:17:14;;;;;;;3.30;2.33;;;;;;;;;;6136215;23;20839;31
2022/05/31 23:21:42;;;;;;;6.18;2.75;;;;;;;;;;6291202;22;20551;31
2022/05/31 23:34:57;;;;;;;2.42;2.10;;;;;;;;;;6323450;22;20728;-62
2022/05/31 23:44:18;;;;;;;2.75;2.40;;;;;;;;;;6227409;22;20206;31
2022/05/31 23:48:57;;;;;;;3.55;2.42;;;;;;;;;;6291882;22;20573;-61
